Disclaimer

Please do not use the information listed here in-flight or in-navigation, as they are not provided to us by the airports but are provided by volunteers, so they might be outdated.

Search


Regions


Airport information page

Radio informations:
MATRUH RDO - 5790 MHz

Airport informations:
Latitude: 31° 19' 31.28" N
Longitude: 027° 13' 18.08" E
Elevation: 94 feet - 29 meters
Operating hours: From sunrise to sunset (SR-SS)
Operating agency: Civil government, landing fees and diplomatic clearance may be required
Timezone: UTC+2(+3DT) - Dates notified by NOTAM
Fuel: 100/130 octane gasoline, leaded, MIL-L-5572F (GREEN)

Jet fuel avaiable but type is unknown.

Runway information:
06/24 - 9843 x 148 feet< - >3000 x 45 meters
15/33 - 9843 x 148 feet< - >3000 x 45 meters

Recent METARs:
HEMM 131400Z 36006KT 9999 SCT020 BKN025 BKN100 20/15 Q1017
HEMM 131400Z 36006KT 9999 SCT020 BKN025 BKN100 20/15 Q1017
HEMM 131400Z 36006KT 9999 SCT020 BKN025 BKN100 20/15 Q1017

Airport on the map: